Time;durP1;ratioP1;P1;durP2;ratioP2;P2;SDS_P1;SDS_P2;PMS_P1;PMS_P2;Temp;Humidity;BMP_temperature;BMP_pressure;BME280_temperature;BME280_humidity;BME280_pressure;Samples;Min_cycle;Max_cycle;Signal;HPM_P1;HPM_P2
2023/05/23 00:01:44;;;;;;;8.37;7.30;;;;;;;;;;5017894;28;20260;-29
2023/05/23 00:04:15;;;;;;;6.27;5.67;;;;;;;;;;5021848;28;20287;-29
2023/05/23 00:06:45;;;;;;;7.40;6.53;;;;;;;;;;5024029;28;20304;-25
2023/05/23 00:09:12;;;;;;;6.60;6.00;;;;;;;;;;5018573;28;20295;-29
2023/05/23 00:11:43;;;;;;;10.37;7.10;;;;;;;;;;5008889;28;20206;-28
2023/05/23 00:14:12;;;;;;;9.43;7.13;;;;;;;;;;5021654;28;20336;-26
2023/05/23 00:16:41;;;;;;;8.03;6.93;;;;;;;;;;5016974;28;20238;-28
2023/05/23 00:19:08;;;;;;;7.60;6.80;;;;;;;;;;5025796;28;20216;-28
2023/05/23 00:21:36;;;;;;;8.20;7.40;;;;;;;;;;5025684;28;20221;-26
2023/05/23 00:24:03;;;;;;;8.37;7.47;;;;;;;;;;5017517;28;20209;-29
2023/05/23 00:26:30;;;;;;;9.10;8.13;;;;;;;;;;5017633;28;20229;-29
2023/05/23 00:28:58;;;;;;;8.40;7.07;;;;;;;;;;5022450;28;20205;-29
2023/05/23 00:31:25;;;;;;;10.60;7.57;;;;;;;;;;5012658;28;20211;-29
2023/05/23 00:33:54;;;;;;;8.97;7.97;;;;;;;;;;5024749;28;20221;-27
2023/05/23 00:36:22;;;;;;;8.00;7.27;;;;;;;;;;5021986;28;20257;-29
2023/05/23 00:38:49;;;;;;;7.40;6.60;;;;;;;;;;5027746;28;20210;-28
2023/05/23 00:41:17;;;;;;;6.67;6.03;;;;;;;;;;5016087;28;20210;-30
2023/05/23 00:43:44;;;;;;;10.23;6.80;;;;;;;;;;5017572;28;20259;-29
2023/05/23 00:46:11;;;;;;;7.00;6.30;;;;;;;;;;5016205;28;20237;-28
2023/05/23 00:48:38;;;;;;;7.50;6.60;;;;;;;;;;5025475;28;20248;-28
2023/05/23 00:51:07;;;;;;;8.33;7.47;;;;;;;;;;5025508;28;20209;-29
2023/05/23 00:53:34;;;;;;;7.70;6.80;;;;;;;;;;5028222;28;20224;-31
2023/05/23 00:56:01;;;;;;;11.23;7.93;;;;;;;;;;5014062;28;20222;-28
2023/05/23 00:58:28;;;;;;;8.87;7.30;;;;;;;;;;5024875;28;20216;-30
2023/05/23 01:00:55;;;;;;;7.77;6.90;;;;;;;;;;5014150;28;20205;-28
2023/05/23 01:03:27;;;;;;;7.93;6.70;;;;;;;;;;5023580;28;20204;-27
2023/05/23 01:05:54;;;;;;;8.60;7.40;;;;;;;;;;5021215;28;20217;-28
2023/05/23 01:08:23;;;;;;;7.80;7.00;;;;;;;;;;5012382;28;20205;-28
2023/05/23 01:10:50;;;;;;;7.43;6.73;;;;;;;;;;5015879;28;20205;-27
2023/05/23 01:13:22;;;;;;;7.83;7.07;;;;;;;;;;5020641;28;20226;-29
2023/05/23 01:15:52;;;;;;;9.57;7.07;;;;;;;;;;5013390;28;20363;-30
2023/05/23 01:18:25;;;;;;;7.47;6.77;;;;;;;;;;5028906;28;20220;-28
2023/05/23 01:20:54;;;;;;;8.13;6.73;;;;;;;;;;5027371;28;20204;-27
2023/05/23 01:23:32;;;;;;;7.57;6.77;;;;;;;;;;5022816;28;20205;-30
2023/05/23 01:26:04;;;;;;;7.60;6.80;;;;;;;;;;5021207;28;20231;-29
2023/05/23 01:28:35;;;;;;;7.63;6.73;;;;;;;;;;5023312;28;20201;-31
2023/05/23 01:31:04;;;;;;;9.37;7.00;;;;;;;;;;5017673;28;20219;-29
2023/05/23 01:33:33;;;;;;;8.73;7.20;;;;;;;;;;5015530;28;20580;-30
2023/05/23 01:36:02;;;;;;;10.20;7.40;;;;;;;;;;5021253;28;20256;-29
2023/05/23 01:38:29;;;;;;;8.17;7.27;;;;;;;;;;5026524;28;20213;-31
2023/05/23 01:40:56;;;;;;;8.97;7.10;;;;;;;;;;5023559;28;20224;-29
2023/05/23 01:43:23;;;;;;;8.03;7.23;;;;;;;;;;5021773;28;20569;-32
2023/05/23 01:45:52;;;;;;;9.97;8.10;;;;;;;;;;5017398;28;20227;-28
2023/05/23 01:48:21;;;;;;;8.03;7.23;;;;;;;;;;5024596;28;20220;-29
2023/05/23 01:50:48;;;;;;;8.77;7.50;;;;;;;;;;5024890;28;20211;-31
2023/05/23 01:53:16;;;;;;;10.70;7.50;;;;;;;;;;5025094;28;20455;-30
2023/05/23 01:55:43;;;;;;;8.63;7.23;;;;;;;;;;5024235;28;20227;-26
2023/05/23 01:58:11;;;;;;;9.50;7.80;;;;;;;;;;5021336;28;20303;-26
2023/05/23 02:00:38;;;;;;;8.47;7.57;;;;;;;;;;5017783;28;20204;-30
2023/05/23 02:03:06;;;;;;;9.70;7.50;;;;;;;;;;5023762;28;20371;-29
2023/05/23 02:05:33;;;;;;;9.93;7.73;;;;;;;;;;5024871;28;20236;-27
2023/05/23 02:08:00;;;;;;;8.13;7.33;;;;;;;;;;5027091;28;20210;-28
2023/05/23 02:10:28;;;;;;;9.77;8.30;;;;;;;;;;5022235;28;20666;-27
2023/05/23 02:12:55;;;;;;;9.00;8.03;;;;;;;;;;5025742;28;20209;-26
2023/05/23 02:15:22;;;;;;;10.87;8.57;;;;;;;;;;5015436;28;20225;-28
2023/05/23 02:17:50;;;;;;;8.77;7.70;;;;;;;;;;5020091;28;20208;-29
2023/05/23 02:20:19;;;;;;;8.30;7.00;;;;;;;;;;5023702;28;20240;-30
2023/05/23 02:22:46;;;;;;;8.30;7.50;;;;;;;;;;5024951;28;20236;-30
2023/05/23 02:25:14;;;;;;;10.27;7.57;;;;;;;;;;5014371;28;20205;-30
2023/05/23 02:27:41;;;;;;;7.97;7.17;;;;;;;;;;5019330;28;20219;-27
2023/05/23 02:30:09;;;;;;;8.93;7.57;;;;;;;;;;5022153;28;20204;-28
2023/05/23 02:32:37;;;;;;;8.80;7.90;;;;;;;;;;5017706;28;20304;-31
2023/05/23 02:35:04;;;;;;;8.23;7.33;;;;;;;;;;5021840;28;20283;-28
2023/05/23 02:37:32;;;;;;;8.80;7.83;;;;;;;;;;5025294;28;20208;-30
2023/05/23 02:40:00;;;;;;;9.27;8.23;;;;;;;;;;5020599;28;20204;-26
2023/05/23 02:42:27;;;;;;;11.73;9.37;;;;;;;;;;5022241;28;20252;-26
2023/05/23 02:44:54;;;;;;;10.53;8.47;;;;;;;;;;5022959;28;20209;-31
2023/05/23 02:47:21;;;;;;;8.67;7.77;;;;;;;;;;5016708;28;20220;-28
2023/05/23 02:49:48;;;;;;;10.20;8.33;;;;;;;;;;5024341;28;20201;-27
2023/05/23 02:52:15;;;;;;;10.10;7.87;;;;;;;;;;5017411;28;20217;-30
2023/05/23 02:54:44;;;;;;;11.20;7.97;;;;;;;;;;5018328;28;20225;-26
2023/05/23 02:57:11;;;;;;;10.07;7.37;;;;;;;;;;5015499;28;20230;-28
2023/05/23 02:59:38;;;;;;;11.63;8.53;;;;;;;;;;5014791;28;20671;-25
2023/05/23 03:02:06;;;;;;;11.20;8.57;;;;;;;;;;5022515;28;20208;-29
2023/05/23 03:04:33;;;;;;;10.00;8.40;;;;;;;;;;5023383;28;20204;-28
2023/05/23 03:07:02;;;;;;;8.13;7.30;;;;;;;;;;5020384;28;20232;-26
2023/05/23 03:09:29;;;;;;;11.97;8.13;;;;;;;;;;5017113;28;20209;-24
2023/05/23 03:11:58;;;;;;;14.83;9.73;;;;;;;;;;5025596;28;20201;-29
2023/05/23 03:14:25;;;;;;;9.20;8.30;;;;;;;;;;5024554;28;20588;-28
2023/05/23 03:16:52;;;;;;;11.97;8.90;;;;;;;;;;5010212;28;20311;-29
2023/05/23 03:19:19;;;;;;;10.07;8.33;;;;;;;;;;5026892;28;20674;-30
2023/05/23 03:21:46;;;;;;;10.70;9.33;;;;;;;;;;5026098;28;20204;-29
2023/05/23 03:24:13;;;;;;;12.83;9.90;;;;;;;;;;5025879;28;20205;-26
2023/05/23 03:26:40;;;;;;;11.77;9.40;;;;;;;;;;5017623;28;20254;-29
2023/05/23 03:29:09;;;;;;;11.00;8.47;;;;;;;;;;5018785;28;20199;-28
2023/05/23 03:31:36;;;;;;;9.10;7.63;;;;;;;;;;5012623;28;20232;-30
2023/05/23 03:34:04;;;;;;;10.40;8.47;;;;;;;;;;5022139;28;20220;-31
2023/05/23 03:36:32;;;;;;;11.07;8.87;;;;;;;;;;5022675;28;20230;-27
2023/05/23 03:39:00;;;;;;;11.27;9.57;;;;;;;;;;5024475;28;20371;-27
2023/05/23 03:41:27;;;;;;;12.17;9.17;;;;;;;;;;5016747;28;20219;-28
2023/05/23 03:43:54;;;;;;;12.47;9.57;;;;;;;;;;5020717;28;20203;-29
2023/05/23 03:46:22;;;;;;;9.80;8.73;;;;;;;;;;5012644;28;20236;-31
2023/05/23 03:48:50;;;;;;;11.23;8.80;;;;;;;;;;5024515;28;20208;-26
2023/05/23 03:51:17;;;;;;;11.70;9.33;;;;;;;;;;5025250;28;20208;-26
2023/05/23 03:53:44;;;;;;;10.33;8.63;;;;;;;;;;5024187;28;20238;-27
2023/05/23 03:56:12;;;;;;;11.10;7.97;;;;;;;;;;5017220;28;20243;-28
2023/05/23 03:58:39;;;;;;;15.93;9.93;;;;;;;;;;5023666;28;20219;-29
2023/05/23 04:01:06;;;;;;;13.73;9.63;;;;;;;;;;5014032;28;20208;-26
2023/05/23 04:03:43;;;;;;;12.53;10.17;;;;;;;;;;5015776;28;20200;-29
2023/05/23 04:06:11;;;;;;;13.63;9.67;;;;;;;;;;5016712;28;20249;-27
2023/05/23 04:08:40;;;;;;;13.43;9.83;;;;;;;;;;5025466;28;20212;-28
2023/05/23 04:11:08;;;;;;;12.97;9.77;;;;;;;;;;5032683;28;20254;-28
2023/05/23 04:13:35;;;;;;;10.87;9.07;;;;;;;;;;5026756;28;20216;-29
2023/05/23 04:16:04;;;;;;;11.30;9.60;;;;;;;;;;5016350;28;20229;-28
2023/05/23 04:18:32;;;;;;;12.03;10.03;;;;;;;;;;5032129;28;20290;-28
2023/05/23 04:20:59;;;;;;;11.20;8.57;;;;;;;;;;5034299;28;20204;-28
2023/05/23 04:23:27;;;;;;;11.93;8.90;;;;;;;;;;5024524;28;20212;-29
2023/05/23 04:25:56;;;;;;;11.03;9.43;;;;;;;;;;5023907;28;20749;-27
2023/05/23 04:28:23;;;;;;;13.27;9.83;;;;;;;;;;5029053;28;20233;-27
2023/05/23 04:30:50;;;;;;;14.07;10.93;;;;;;;;;;5023024;28;20451;-28
2023/05/23 04:33:18;;;;;;;15.57;10.87;;;;;;;;;;5019690;28;20208;-28
2023/05/23 04:35:45;;;;;;;18.73;13.07;;;;;;;;;;5028218;28;20229;-26
2023/05/23 04:38:12;;;;;;;18.33;13.67;;;;;;;;;;5022820;28;20215;-26
2023/05/23 04:40:41;;;;;;;21.83;13.20;;;;;;;;;;5030331;28;20208;-28
2023/05/23 04:43:08;;;;;;;15.53;12.67;;;;;;;;;;5031980;28;20209;-26
2023/05/23 04:45:36;;;;;;;15.30;12.10;;;;;;;;;;5021023;28;20231;-27
2023/05/23 04:48:06;;;;;;;17.70;12.83;;;;;;;;;;5026577;28;20211;-26
2023/05/23 04:50:34;;;;;;;17.63;13.13;;;;;;;;;;5028942;28;20214;-31
2023/05/23 04:53:01;;;;;;;24.07;14.23;;;;;;;;;;5023275;28;20213;-26
2023/05/23 04:55:29;;;;;;;26.47;17.07;;;;;;;;;;5028620;28;20232;-26
2023/05/23 04:57:57;;;;;;;29.30;19.53;;;;;;;;;;5031610;28;20203;-27
2023/05/23 05:00:24;;;;;;;32.60;21.23;;;;;;;;;;5020814;28;20215;-29
2023/05/23 05:02:51;;;;;;;25.00;17.97;;;;;;;;;;5018531;28;20208;-29
2023/05/23 05:05:18;;;;;;;28.97;18.93;;;;;;;;;;5031349;28;20226;-27
2023/05/23 05:07:45;;;;;;;29.57;19.60;;;;;;;;;;5031933;28;20208;-29
2023/05/23 05:10:15;;;;;;;32.57;19.60;;;;;;;;;;5025142;28;20618;-28
2023/05/23 05:12:42;;;;;;;31.73;19.77;;;;;;;;;;5024202;28;20226;-27
2023/05/23 05:15:11;;;;;;;27.50;17.73;;;;;;;;;;5028249;28;20216;-26
2023/05/23 05:17:39;;;;;;;30.13;18.87;;;;;;;;;;5028369;28;20212;-25
2023/05/23 05:20:07;;;;;;;29.90;18.73;;;;;;;;;;5029012;28;20290;-29
2023/05/23 05:22:35;;;;;;;24.03;15.70;;;;;;;;;;5024250;28;20219;-30
2023/05/23 05:25:02;;;;;;;29.43;19.37;;;;;;;;;;5016017;28;20199;-26
2023/05/23 05:27:29;;;;;;;28.07;18.93;;;;;;;;;;5025221;28;20211;-29
2023/05/23 05:29:57;;;;;;;36.20;23.30;;;;;;;;;;5031107;28;20211;-31
2023/05/23 05:32:27;;;;;;;31.07;20.90;;;;;;;;;;5026313;28;20212;-28
2023/05/23 05:34:55;;;;;;;40.60;26.97;;;;;;;;;;5030234;28;20220;-27
2023/05/23 05:37:22;;;;;;;37.80;25.20;;;;;;;;;;5031753;28;20217;-28
2023/05/23 05:39:49;;;;;;;31.23;22.97;;;;;;;;;;5023853;28;20212;-26
2023/05/23 05:42:16;;;;;;;36.77;24.47;;;;;;;;;;5018544;28;20304;-23
2023/05/23 05:44:43;;;;;;;38.60;26.27;;;;;;;;;;5029548;28;20201;-28
2023/05/23 05:47:10;;;;;;;29.73;19.97;;;;;;;;;;5021467;28;20237;-29
2023/05/23 05:49:41;;;;;;;37.63;25.20;;;;;;;;;;5028011;28;20300;-27
2023/05/23 05:52:08;;;;;;;38.57;23.27;;;;;;;;;;5026418;28;20192;-28
2023/05/23 05:54:36;;;;;;;35.67;23.00;;;;;;;;;;5018775;28;20223;-30
2023/05/23 05:57:03;;;;;;;40.57;26.83;;;;;;;;;;5017578;28;20223;-27
2023/05/23 05:59:30;;;;;;;40.77;26.60;;;;;;;;;;5028907;28;20577;-28
2023/05/23 06:01:57;;;;;;;43.13;28.97;;;;;;;;;;5024573;28;20208;-29
2023/05/23 06:04:24;;;;;;;42.23;25.87;;;;;;;;;;5029587;28;20239;-30
2023/05/23 06:06:53;;;;;;;42.27;27.63;;;;;;;;;;5032163;28;20236;-28
2023/05/23 06:09:20;;;;;;;41.80;26.43;;;;;;;;;;5027708;28;20207;-26
2023/05/23 06:11:47;;;;;;;37.03;25.60;;;;;;;;;;5024969;28;20201;-25
2023/05/23 06:14:14;;;;;;;43.90;26.80;;;;;;;;;;5026674;28;20220;-26
2023/05/23 06:16:41;;;;;;;38.90;27.03;;;;;;;;;;5023518;28;20232;-25
2023/05/23 06:19:08;;;;;;;34.47;24.03;;;;;;;;;;5031253;28;20213;-26
2023/05/23 06:21:36;;;;;;;35.33;23.67;;;;;;;;;;5031021;28;20212;-26
2023/05/23 06:24:04;;;;;;;44.63;26.83;;;;;;;;;;5019500;28;20537;-27
2023/05/23 06:26:32;;;;;;;32.30;22.83;;;;;;;;;;5025191;28;20229;-27
2023/05/23 06:29:00;;;;;;;34.97;24.30;;;;;;;;;;5020010;28;20337;-27
2023/05/23 06:31:27;;;;;;;39.37;25.00;;;;;;;;;;5018931;28;20209;-26
2023/05/23 06:33:54;;;;;;;35.53;24.10;;;;;;;;;;5030001;28;20201;-30
2023/05/23 06:36:21;;;;;;;31.60;22.17;;;;;;;;;;5030811;28;20230;-26
2023/05/23 06:38:48;;;;;;;34.70;23.40;;;;;;;;;;5028186;28;20221;-25
2023/05/23 06:41:17;;;;;;;38.20;25.07;;;;;;;;;;5018584;28;20217;-30
2023/05/23 06:43:44;;;;;;;34.83;22.83;;;;;;;;;;5029710;28;20716;-25
2023/05/23 06:46:11;;;;;;;36.80;25.60;;;;;;;;;;5019194;28;20241;-28
2023/05/23 06:48:38;;;;;;;45.20;22.70;;;;;;;;;;5023778;28;20210;-28
2023/05/23 06:51:05;;;;;;;30.03;21.43;;;;;;;;;;5030754;28;20212;-25
2023/05/23 06:53:32;;;;;;;29.37;21.83;;;;;;;;;;5024621;28;20221;-29
2023/05/23 06:56:00;;;;;;;33.60;21.93;;;;;;;;;;5012689;28;20726;-26
2023/05/23 06:58:28;;;;;;;33.83;21.23;;;;;;;;;;5027623;28;20205;-28
2023/05/23 07:00:55;;;;;;;34.60;23.00;;;;;;;;;;5023932;28;20761;-28
2023/05/23 07:03:22;;;;;;;30.83;22.17;;;;;;;;;;5030212;28;20210;-26
2023/05/23 07:05:50;;;;;;;30.97;20.90;;;;;;;;;;5026554;28;20237;-27
2023/05/23 07:08:17;;;;;;;33.83;24.00;;;;;;;;;;5027341;28;20357;-27
2023/05/23 07:10:44;;;;;;;44.27;24.03;;;;;;;;;;5020916;28;20210;-27
2023/05/23 07:13:11;;;;;;;51.23;24.90;;;;;;;;;;5030135;28;20207;-27
2023/05/23 07:15:39;;;;;;;31.30;22.47;;;;;;;;;;5025256;28;20232;-28
2023/05/23 07:18:07;;;;;;;34.37;23.23;;;;;;;;;;5029259;28;20204;-28
2023/05/23 07:20:34;;;;;;;47.77;24.03;;;;;;;;;;5031057;28;20211;-29
2023/05/23 07:23:01;;;;;;;37.80;24.93;;;;;;;;;;5027202;28;20717;-27
2023/05/23 07:25:28;;;;;;;37.17;24.83;;;;;;;;;;5019682;28;20230;-27
2023/05/23 07:27:55;;;;;;;31.07;21.97;;;;;;;;;;5029420;28;20202;-28
2023/05/23 07:30:22;;;;;;;31.57;22.37;;;;;;;;;;5024501;28;20233;-27
2023/05/23 07:32:52;;;;;;;34.50;24.50;;;;;;;;;;5023739;28;20738;-28
2023/05/23 07:35:22;;;;;;;34.07;23.00;;;;;;;;;;5025680;28;20890;-30
2023/05/23 07:37:50;;;;;;;32.33;22.23;;;;;;;;;;5029619;28;20295;-27
2023/05/23 07:40:18;;;;;;;29.57;21.83;;;;;;;;;;5020864;28;20207;-25
2023/05/23 07:42:45;;;;;;;30.73;21.77;;;;;;;;;;5026801;28;20219;-24
2023/05/23 07:45:12;;;;;;;33.10;23.17;;;;;;;;;;5023791;28;20204;-25
2023/05/23 07:47:39;;;;;;;33.87;23.73;;;;;;;;;;5020410;28;20300;-29
2023/05/23 07:50:09;;;;;;;30.47;20.63;;;;;;;;;;5025964;28;20229;-24
2023/05/23 07:52:36;;;;;;;36.73;25.33;;;;;;;;;;5028766;28;20212;-28
2023/05/23 07:55:03;;;;;;;32.30;21.80;;;;;;;;;;5018862;28;20234;-29
2023/05/23 07:57:30;;;;;;;38.90;22.77;;;;;;;;;;5025371;28;20247;-26
2023/05/23 07:59:57;;;;;;;33.77;23.43;;;;;;;;;;5022244;28;20202;-25
2023/05/23 08:02:24;;;;;;;35.13;22.83;;;;;;;;;;5022894;28;20302;-28
2023/05/23 08:04:52;;;;;;;35.10;23.73;;;;;;;;;;5022758;28;20205;-27
2023/05/23 08:07:20;;;;;;;31.23;22.97;;;;;;;;;;5029941;28;20235;-27
2023/05/23 08:09:47;;;;;;;34.33;21.97;;;;;;;;;;5031183;28;20271;-27
2023/05/23 08:12:15;;;;;;;29.53;22.03;;;;;;;;;;5027899;28;20203;-27
2023/05/23 08:14:42;;;;;;;29.60;20.83;;;;;;;;;;5019122;28;20208;-24
2023/05/23 08:17:09;;;;;;;31.97;22.40;;;;;;;;;;5013655;28;20240;-27
2023/05/23 08:19:37;;;;;;;30.23;22.27;;;;;;;;;;5019596;28;20202;-27
2023/05/23 08:22:06;;;;;;;31.47;22.53;;;;;;;;;;5027823;28;20200;-27
2023/05/23 08:24:34;;;;;;;27.27;22.43;;;;;;;;;;5019245;28;20219;-23
2023/05/23 08:27:01;;;;;;;27.07;21.27;;;;;;;;;;5019518;28;20224;-27
2023/05/23 08:29:29;;;;;;;28.37;20.23;;;;;;;;;;5029469;28;20210;-28
2023/05/23 08:31:56;;;;;;;24.07;17.10;;;;;;;;;;5021265;28;20205;-24
2023/05/23 08:34:23;;;;;;;21.23;18.47;;;;;;;;;;5026657;28;20215;-25
2023/05/23 08:36:51;;;;;;;26.07;19.13;;;;;;;;;;5028896;28;20318;-27
2023/05/23 08:39:18;;;;;;;24.97;19.83;;;;;;;;;;5028955;28;20202;-24
2023/05/23 08:41:47;;;;;;;24.83;17.83;;;;;;;;;;5021535;28;20221;-27
2023/05/23 08:44:14;;;;;;;20.63;16.13;;;;;;;;;;5026527;28;20212;-26
2023/05/23 08:46:45;;;;;;;21.73;16.67;;;;;;;;;;5024255;28;20220;-28
2023/05/23 08:49:14;;;;;;;23.73;16.87;;;;;;;;;;5028187;28;20224;-27
2023/05/23 08:51:43;;;;;;;22.13;17.33;;;;;;;;;;5026681;28;20253;-24
2023/05/23 08:54:11;;;;;;;21.27;15.07;;;;;;;;;;5030147;28;20201;-26
2023/05/23 08:56:39;;;;;;;19.00;16.37;;;;;;;;;;5024358;28;20229;-28
2023/05/23 08:59:09;;;;;;;21.83;16.53;;;;;;;;;;5032786;28;20237;-28
2023/05/23 09:01:36;;;;;;;18.90;16.00;;;;;;;;;;5024720;28;20214;-28
2023/05/23 09:04:10;;;;;;;18.20;14.80;;;;;;;;;;5030774;28;20882;-28
2023/05/23 09:06:37;;;;;;;19.53;14.93;;;;;;;;;;5032573;28;20228;-26
2023/05/23 09:09:04;;;;;;;19.43;15.80;;;;;;;;;;5013893;28;20213;-26
2023/05/23 09:11:32;;;;;;;18.47;16.17;;;;;;;;;;5019634;28;20213;-28
2023/05/23 09:14:00;;;;;;;20.33;16.87;;;;;;;;;;5031555;28;20200;-25
2023/05/23 09:16:33;;;;;;;19.77;15.73;;;;;;;;;;5018258;28;20230;-26
2023/05/23 09:19:10;;;;;;;19.53;16.23;;;;;;;;;;5029715;28;20336;-28
2023/05/23 09:21:37;;;;;;;18.57;15.70;;;;;;;;;;5027146;28;20220;-25
2023/05/23 09:24:05;;;;;;;19.10;14.57;;;;;;;;;;5031414;28;20560;-27
2023/05/23 09:26:33;;;;;;;17.40;14.97;;;;;;;;;;5018132;28;20232;-25
2023/05/23 09:29:00;;;;;;;16.63;14.37;;;;;;;;;;5030997;28;20212;-28
2023/05/23 09:31:32;;;;;;;17.93;14.20;;;;;;;;;;5023922;28;20215;-24
2023/05/23 09:34:00;;;;;;;28.40;16.00;;;;;;;;;;5031247;28;20201;-28
2023/05/23 09:36:29;;;;;;;23.20;14.53;;;;;;;;;;5031412;28;20228;-27
2023/05/23 09:38:56;;;;;;;16.80;13.87;;;;;;;;;;5029953;28;20237;-28
2023/05/23 09:41:25;;;;;;;15.47;12.13;;;;;;;;;;5016202;28;20227;-26
2023/05/23 09:43:52;;;;;;;16.80;12.57;;;;;;;;;;5028210;28;20281;-26
2023/05/23 09:46:21;;;;;;;17.40;14.50;;;;;;;;;;5028241;28;20225;-26
2023/05/23 09:48:50;;;;;;;18.90;14.70;;;;;;;;;;5029926;28;20208;-27
2023/05/23 09:51:19;;;;;;;15.37;13.47;;;;;;;;;;5031882;28;20714;-27
2023/05/23 09:53:46;;;;;;;14.80;13.07;;;;;;;;;;5031555;28;20736;-26
2023/05/23 09:56:14;;;;;;;15.30;12.33;;;;;;;;;;5027124;28;20240;-28
2023/05/23 09:58:43;;;;;;;16.07;12.33;;;;;;;;;;5028901;28;20215;-26
2023/05/23 10:01:10;;;;;;;16.97;11.70;;;;;;;;;;5014537;28;20209;-26
2023/05/23 10:03:40;;;;;;;14.57;12.50;;;;;;;;;;5028014;28;20201;-27
2023/05/23 10:06:09;;;;;;;15.47;12.13;;;;;;;;;;5030350;28;20222;-27
2023/05/23 10:08:39;;;;;;;13.17;11.67;;;;;;;;;;5025483;28;20242;-28
2023/05/23 10:11:33;;;;;;;13.27;11.80;;;;;;;;;;5024864;28;20213;-26
2023/05/23 10:14:02;;;;;;;14.10;11.77;;;;;;;;;;5025033;28;20198;-27
2023/05/23 10:16:31;;;;;;;17.07;12.07;;;;;;;;;;5028267;28;20238;-26
2023/05/23 10:19:01;;;;;;;12.17;10.97;;;;;;;;;;5031455;28;20215;-27
2023/05/23 10:21:31;;;;;;;15.33;11.20;;;;;;;;;;5027924;28;20276;-27
2023/05/23 10:24:01;;;;;;;15.63;12.17;;;;;;;;;;5030176;28;20204;-27
2023/05/23 10:26:28;;;;;;;12.53;11.10;;;;;;;;;;5024891;28;20237;-27
2023/05/23 10:28:56;;;;;;;13.70;11.73;;;;;;;;;;5029437;28;20289;-28
2023/05/23 10:31:24;;;;;;;16.37;12.20;;;;;;;;;;5018608;28;20218;-27
2023/05/23 10:33:53;;;;;;;15.63;11.83;;;;;;;;;;5024527;28;20205;-28
2023/05/23 10:36:25;;;;;;;14.93;12.30;;;;;;;;;;5026027;28;20722;-28
2023/05/23 10:38:55;;;;;;;13.43;11.53;;;;;;;;;;5024507;28;20203;-29
2023/05/23 10:41:26;;;;;;;14.37;11.70;;;;;;;;;;5026580;28;20222;-29
2023/05/23 10:43:55;;;;;;;14.57;11.50;;;;;;;;;;5022168;28;20191;-26
2023/05/23 10:46:23;;;;;;;14.43;10.97;;;;;;;;;;5021266;28;20320;-27
2023/05/23 10:48:56;;;;;;;13.67;10.93;;;;;;;;;;5024946;28;20208;-26
2023/05/23 10:51:23;;;;;;;13.97;10.93;;;;;;;;;;5026940;28;20205;-26
2023/05/23 10:53:54;;;;;;;15.83;11.67;;;;;;;;;;5029986;28;20256;-25
2023/05/23 10:56:22;;;;;;;14.23;11.23;;;;;;;;;;5018044;28;20237;-28
2023/05/23 10:58:54;;;;;;;12.93;11.53;;;;;;;;;;5029114;28;20213;-35
2023/05/23 11:01:23;;;;;;;20.60;10.87;;;;;;;;;;5020074;28;20212;-27
2023/05/23 11:03:51;;;;;;;14.63;11.33;;;;;;;;;;5022897;28;20199;-26
2023/05/23 11:06:32;;;;;;;13.27;10.80;;;;;;;;;;5029252;28;20278;-27
2023/05/23 11:09:03;;;;;;;14.30;11.57;;;;;;;;;;5019845;28;20688;-23
2023/05/23 11:11:45;;;;;;;20.30;12.87;;;;;;;;;;5022016;28;20205;-26
2023/05/23 11:14:14;;;;;;;13.63;11.00;;;;;;;;;;5028009;28;20210;-27
2023/05/23 11:16:42;;;;;;;13.17;11.80;;;;;;;;;;5022474;28;20226;-25
2023/05/23 11:19:23;;;;;;;12.30;10.43;;;;;;;;;;5027477;28;20237;-30
2023/05/23 11:21:52;;;;;;;12.30;9.90;;;;;;;;;;5024149;28;20449;-25
2023/05/23 11:24:20;;;;;;;11.67;10.47;;;;;;;;;;5024523;28;20217;-24
2023/05/23 11:26:54;;;;;;;11.50;10.30;;;;;;;;;;5024298;28;20224;-27
2023/05/23 11:29:23;;;;;;;11.00;9.47;;;;;;;;;;5028113;28;20220;-26
2023/05/23 11:31:50;;;;;;;10.93;9.13;;;;;;;;;;5018640;28;20202;-27
2023/05/23 11:34:18;;;;;;;13.67;9.10;;;;;;;;;;5024085;28;20205;-27
2023/05/23 11:36:45;;;;;;;10.47;9.37;;;;;;;;;;5031883;28;20582;-25
2023/05/23 11:39:14;;;;;;;9.17;8.20;;;;;;;;;;5027969;28;20226;-26
2023/05/23 11:41:42;;;;;;;12.03;10.37;;;;;;;;;;5023311;28;20214;-23
2023/05/23 11:44:12;;;;;;;11.60;10.40;;;;;;;;;;5032106;28;20207;-28
2023/05/23 11:46:41;;;;;;;14.63;10.30;;;;;;;;;;5025539;28;20218;-24
2023/05/23 11:49:12;;;;;;;12.53;11.27;;;;;;;;;;5031763;28;20209;-27
2023/05/23 11:51:39;;;;;;;13.73;12.30;;;;;;;;;;5032270;28;20206;-27
2023/05/23 11:54:06;;;;;;;10.87;9.77;;;;;;;;;;5025840;28;20206;-26
2023/05/23 11:56:39;;;;;;;10.77;9.70;;;;;;;;;;5029769;28;20229;-27
2023/05/23 11:59:06;;;;;;;11.17;10.17;;;;;;;;;;5032078;28;20288;-29
2023/05/23 12:01:34;;;;;;;13.80;11.53;;;;;;;;;;5025594;28;20203;-27
2023/05/23 12:04:09;;;;;;;11.13;9.57;;;;;;;;;;5031277;28;20328;-25
2023/05/23 12:06:51;;;;;;;11.70;10.50;;;;;;;;;;5032437;28;20224;-29
2023/05/23 12:09:18;;;;;;;9.80;8.73;;;;;;;;;;5027293;28;20556;-30
2023/05/23 12:11:45;;;;;;;11.40;8.93;;;;;;;;;;5022659;28;20564;-27
2023/05/23 12:14:16;;;;;;;15.97;9.47;;;;;;;;;;5031474;28;20210;-28
2023/05/23 12:16:45;;;;;;;9.13;8.00;;;;;;;;;;5025260;28;20594;-24
2023/05/23 12:19:14;;;;;;;53.70;14.80;;;;;;;;;;5019841;28;20202;-27
2023/05/23 12:21:46;;;;;;;11.70;7.60;;;;;;;;;;5032100;28;20209;-26
2023/05/23 12:24:14;;;;;;;11.70;8.63;;;;;;;;;;5023716;28;20211;-26
2023/05/23 12:26:51;;;;;;;8.07;7.20;;;;;;;;;;5031677;28;20226;-24
2023/05/23 12:29:22;;;;;;;8.67;7.43;;;;;;;;;;5032593;28;20214;-24
2023/05/23 12:31:50;;;;;;;15.90;8.90;;;;;;;;;;5024298;28;20202;-27
2023/05/23 12:34:18;;;;;;;8.05;7.10;;;;;;;;;;5035352;28;20244;-28
2023/05/23 12:36:47;;;;;;;8.43;7.60;;;;;;;;;;5035400;28;20230;-28
2023/05/23 12:39:15;;;;;;;6.60;6.00;;;;;;;;;;5029643;28;20233;-24
2023/05/23 12:41:45;;;;;;;7.37;6.47;;;;;;;;;;5032480;28;20533;-26
2023/05/23 12:44:16;;;;;;;9.43;7.83;;;;;;;;;;5030481;28;20195;-27
2023/05/23 12:46:43;;;;;;;8.00;6.93;;;;;;;;;;5027862;28;20700;-28
2023/05/23 12:49:11;;;;;;;8.10;6.43;;;;;;;;;;5035559;28;20217;-28
2023/05/23 12:51:40;;;;;;;8.67;6.83;;;;;;;;;;5035782;28;20206;-26
2023/05/23 12:54:09;;;;;;;8.00;7.23;;;;;;;;;;5035548;28;20212;-26
2023/05/23 12:56:36;;;;;;;6.93;6.23;;;;;;;;;;5030112;28;20234;-26
2023/05/23 12:59:03;;;;;;;6.93;6.23;;;;;;;;;;5026552;28;20690;-27
2023/05/23 13:01:32;;;;;;;8.03;6.60;;;;;;;;;;5027824;28;20207;-25
2023/05/23 13:03:59;;;;;;;6.97;6.20;;;;;;;;;;5034399;28;20206;-26
2023/05/23 13:06:27;;;;;;;6.33;5.53;;;;;;;;;;5035009;28;20226;-28
2023/05/23 13:08:55;;;;;;;7.63;5.77;;;;;;;;;;5034846;28;20216;-28
2023/05/23 13:11:23;;;;;;;6.23;5.43;;;;;;;;;;5028245;28;20218;-27
2023/05/23 13:13:51;;;;;;;6.27;5.67;;;;;;;;;;5034672;28;20236;-30
2023/05/23 13:16:19;;;;;;;5.83;5.30;;;;;;;;;;5023545;28;20280;-30
2023/05/23 13:18:46;;;;;;;6.13;5.57;;;;;;;;;;5032205;28;20313;-29
2023/05/23 13:21:13;;;;;;;7.00;5.25;;;;;;;;;;5029165;28;20209;-25
2023/05/23 13:23:40;;;;;;;8.57;6.00;;;;;;;;;;5033633;28;20213;-26
2023/05/23 13:26:09;;;;;;;8.70;5.80;;;;;;;;;;5024451;28;20238;-28
2023/05/23 13:28:36;;;;;;;5.53;5.03;;;;;;;;;;5033086;28;20198;-26
2023/05/23 13:31:03;;;;;;;6.20;5.70;;;;;;;;;;5033608;28;20645;-26
2023/05/23 13:33:30;;;;;;;6.68;5.85;;;;;;;;;;5032114;28;20211;-29
2023/05/23 13:35:57;;;;;;;5.73;4.97;;;;;;;;;;5031329;28;20222;-30
2023/05/23 13:38:26;;;;;;;6.67;5.77;;;;;;;;;;5033394;28;20225;-27
2023/05/23 13:40:53;;;;;;;6.00;5.50;;;;;;;;;;5026746;28;20246;-25
2023/05/23 13:43:22;;;;;;;7.47;5.63;;;;;;;;;;5032160;28;20203;-25
2023/05/23 13:45:49;;;;;;;6.07;5.47;;;;;;;;;;5027666;28;20233;-26
2023/05/23 13:48:16;;;;;;;7.67;5.00;;;;;;;;;;5023640;28;20207;-27
2023/05/23 13:50:43;;;;;;;5.47;5.00;;;;;;;;;;5032929;28;20210;-29
2023/05/23 13:53:15;;;;;;;5.17;4.77;;;;;;;;;;5031362;28;20206;-29
2023/05/23 13:55:43;;;;;;;4.87;4.40;;;;;;;;;;5030629;28;20234;-28
2023/05/23 13:58:11;;;;;;;5.90;5.30;;;;;;;;;;5033279;28;20284;-25
2023/05/23 14:00:39;;;;;;;5.40;4.90;;;;;;;;;;5030256;28;20846;-29
2023/05/23 14:03:07;;;;;;;6.63;5.13;;;;;;;;;;5029271;28;20230;-27
2023/05/23 14:05:35;;;;;;;5.17;4.67;;;;;;;;;;5033036;28;20230;-28
2023/05/23 14:08:03;;;;;;;5.07;4.40;;;;;;;;;;5034000;28;20206;-27
2023/05/23 14:10:35;;;;;;;4.20;3.90;;;;;;;;;;5027981;28;20290;-28
2023/05/23 14:13:02;;;;;;;4.90;4.13;;;;;;;;;;5030351;28;20205;-27
2023/05/23 14:15:30;;;;;;;4.60;4.20;;;;;;;;;;5026440;28;20317;-31
2023/05/23 14:18:07;;;;;;;4.70;4.23;;;;;;;;;;5025486;28;20256;-27
2023/05/23 14:20:35;;;;;;;6.57;4.20;;;;;;;;;;5032808;28;20205;-28
2023/05/23 14:23:02;;;;;;;4.97;4.47;;;;;;;;;;5019574;28;20211;-31
2023/05/23 14:25:29;;;;;;;4.67;4.27;;;;;;;;;;5013236;28;20251;-26
2023/05/23 14:27:56;;;;;;;3.93;3.60;;;;;;;;;;5026428;28;20206;-27
2023/05/23 14:30:23;;;;;;;4.43;4.03;;;;;;;;;;5029339;28;20206;-29
2023/05/23 14:32:50;;;;;;;4.63;4.23;;;;;;;;;;5025854;28;20199;-27
2023/05/23 14:35:21;;;;;;;5.10;4.60;;;;;;;;;;5032898;28;20237;-25